Columbia, Missouri
Current Conditions -  °F | °C
As of 5:12 AM on Saturday 25 Oct 2014 (Local Time) from KCOU Reporting Station
Haze Haze  
Wind Chill: 14°   Ceiling: 1100
Heat Index: 14°   Visibility: 0.75mi
Dew Point: 14°   Wind: 6mph
Humidity: 97%   Direction: 260°W
Pressure: 30.01"   Gusts: NA
Location:  38.95°N, 92.33°W
Report Text: KCOU 251012Z AUTO 26005KT 3/4SM BR VV011 14/14 A3001 RMK AO2 T01440139 $
Loading
Personal Weather Stations






























Interactive Weather Map New forecast layout! Learn more

10-Day Weather Forecast

Advertisements
Track Severe Weather on mobile